createdAt,value
2023-05-01T00:02:16.295Z,7.50
2023-05-01T00:04:43.854Z,8.00
2023-05-01T00:07:11.353Z,9.27
2023-05-01T00:09:38.588Z,6.35
2023-05-01T00:12:05.901Z,8.13
2023-05-01T00:14:33.198Z,7.70
2023-05-01T00:17:01.062Z,11.82
2023-05-01T00:19:28.377Z,9.25
2023-05-01T00:21:55.723Z,10.93
2023-05-01T00:24:22.997Z,6.80
2023-05-01T00:26:50.323Z,7.05
2023-05-01T00:29:17.636Z,10.55
2023-05-01T00:31:45.762Z,7.43
2023-05-01T00:34:13.163Z,8.02
2023-05-01T00:36:40.607Z,6.93
2023-05-01T00:39:08.011Z,14.85
2023-05-01T00:41:35.810Z,8.02
2023-05-01T00:44:03.458Z,5.70
2023-05-01T00:46:31.388Z,6.72
2023-05-01T00:48:59.041Z,6.72
2023-05-01T00:51:28.178Z,11.32
2023-05-01T00:53:56.639Z,8.23
2023-05-01T00:56:25.276Z,8.63
2023-05-01T00:58:53.438Z,11.70
2023-05-01T01:01:24.029Z,8.27
2023-05-01T01:03:51.851Z,8.52
2023-05-01T01:06:39.259Z,9.57
2023-05-01T01:09:25.841Z,10.85
2023-05-01T01:11:56.500Z,8.07
2023-05-01T01:14:33.843Z,10.55
2023-05-01T01:17:05.364Z,7.15
2023-05-01T01:19:35.861Z,7.55
2023-05-01T01:22:06.954Z,7.70
2023-05-01T01:24:44.668Z,6.68
2023-05-01T01:27:30.700Z,8.75
2023-05-01T01:30:16.961Z,6.13
2023-05-01T01:32:55.562Z,7.25
2023-05-01T01:35:26.783Z,9.63
2023-05-01T01:38:07.442Z,9.55
2023-05-01T01:40:39.764Z,6.45
2023-05-01T01:43:08.196Z,7.13
2023-05-01T01:45:38.307Z,7.75
2023-05-01T01:48:07.538Z,9.52
2023-05-01T01:50:36.762Z,6.72
2023-05-01T01:53:05.498Z,7.68
2023-05-01T01:55:33.715Z,7.88
2023-05-01T01:58:02.200Z,7.65
2023-05-01T02:00:30.295Z,8.48
2023-05-01T02:02:59.723Z,7.65
2023-05-01T02:05:27.653Z,7.05
2023-05-01T02:07:55.634Z,7.55
2023-05-01T02:10:23.880Z,9.15
2023-05-01T02:12:52.168Z,8.77
2023-05-01T02:15:20.003Z,7.78
2023-05-01T02:17:55.997Z,9.32
2023-05-01T02:20:25.432Z,7.95
2023-05-01T02:22:54.662Z,9.32
2023-05-01T02:28:00.566Z,8.32
2023-05-01T02:30:28.108Z,7.67
2023-05-01T02:32:55.452Z,8.50
2023-05-01T02:35:23.341Z,7.88
2023-05-01T02:37:51.487Z,7.55
2023-05-01T02:40:19.225Z,8.33
2023-05-01T02:42:47.478Z,6.15
2023-05-01T02:47:45.048Z,9.02
2023-05-01T02:50:15.053Z,8.07
2023-05-01T02:52:43.644Z,8.57
2023-05-01T02:55:27.336Z,7.28
2023-05-01T02:57:58.593Z,12.98
2023-05-01T03:00:26.383Z,9.55
2023-05-01T03:02:53.747Z,6.97
2023-05-01T03:05:21.815Z,9.70
2023-05-01T03:07:49.218Z,9.13
2023-05-01T03:10:16.919Z,9.52
2023-05-01T03:12:44.446Z,9.77
2023-05-01T03:15:14.980Z,9.60
2023-05-01T03:17:42.841Z,7.60
2023-05-01T03:20:10.846Z,6.15
2023-05-01T03:22:38.231Z,7.70
2023-05-01T03:25:07.677Z,8.23
2023-05-01T03:27:35.177Z,6.70
2023-05-01T03:30:02.576Z,6.18
2023-05-01T03:32:33.265Z,9.73
2023-05-01T03:35:01.197Z,6.90
2023-05-01T03:37:29.062Z,9.35
2023-05-01T03:39:56.562Z,7.78
2023-05-01T03:42:44.256Z,10.57
2023-05-01T03:45:19.669Z,13.05
2023-05-01T03:47:46.985Z,7.63
2023-05-01T03:50:16.314Z,7.95
2023-05-01T03:52:45.428Z,5.60
2023-05-01T03:55:13.374Z,9.55
2023-05-01T03:57:47.162Z,10.32
2023-05-01T04:00:15.013Z,9.02
2023-05-01T04:02:47.492Z,8.55
2023-05-01T04:05:21.429Z,9.13
2023-05-01T04:07:53.204Z,9.45
2023-05-01T04:10:20.703Z,9.13
2023-05-01T04:12:55.185Z,8.48
2023-05-01T04:15:22.832Z,8.07
2023-05-01T04:17:51.098Z,8.05
2023-05-01T04:20:19.547Z,9.38
2023-05-01T04:22:47.738Z,9.88
2023-05-01T04:25:15.024Z,8.27
2023-05-01T04:27:43.005Z,6.13
2023-05-01T04:30:11.120Z,8.40
2023-05-01T04:32:39.521Z,10.15
2023-05-01T04:35:07.075Z,9.63
2023-05-01T04:37:35.709Z,6.70
2023-05-01T04:40:04.397Z,9.07
2023-05-01T04:42:32.536Z,8.13
2023-05-01T04:45:04.266Z,12.63
2023-05-01T04:47:36.030Z,7.90
2023-05-01T04:50:03.408Z,13.43
2023-05-01T04:52:32.169Z,9.75
2023-05-01T04:55:01.773Z,8.60
2023-05-01T04:57:31.480Z,9.45
2023-05-01T04:59:59.949Z,15.67
2023-05-01T05:02:27.413Z,9.95
2023-05-01T05:04:54.798Z,14.48
2023-05-01T05:07:22.938Z,9.27
2023-05-01T05:10:22.405Z,10.05
2023-05-01T05:13:01.597Z,16.38
2023-05-01T05:15:28.850Z,11.73
2023-05-01T05:17:56.753Z,11.52
2023-05-01T05:20:24.942Z,7.60
2023-05-01T05:22:52.777Z,11.07
2023-05-01T05:25:25.104Z,12.55
2023-05-01T05:27:53.192Z,7.70
2023-05-01T05:30:20.666Z,11.25
2023-05-01T05:32:48.283Z,10.15
2023-05-01T05:35:16.021Z,9.82
2023-05-01T05:37:45.337Z,8.88
2023-05-01T05:40:13.782Z,7.53
2023-05-01T05:42:52.262Z,8.23
2023-05-01T05:45:20.472Z,9.65
2023-05-01T05:47:48.208Z,8.65
2023-05-01T05:50:15.935Z,9.73
2023-05-01T05:52:45.510Z,9.68
2023-05-01T05:55:13.620Z,9.80
2023-05-01T05:57:46.495Z,9.82
2023-05-01T06:00:14.202Z,15.50
2023-05-01T06:02:48.306Z,9.90
2023-05-01T06:05:17.355Z,22.75
2023-05-01T06:07:44.671Z,8.15
2023-05-01T06:10:12.213Z,15.30
2023-05-01T06:12:43.280Z,17.02
2023-05-01T06:15:17.096Z,14.00
2023-05-01T06:17:51.478Z,10.52
2023-05-01T06:20:18.918Z,18.23
2023-05-01T06:22:47.051Z,12.38
2023-05-01T06:25:30.127Z,10.90
2023-05-01T06:27:57.368Z,12.95
2023-05-01T06:30:25.379Z,11.98
2023-05-01T06:32:52.910Z,10.57
2023-05-01T06:35:21.136Z,8.30
2023-05-01T06:37:48.521Z,7.80
2023-05-01T06:40:16.539Z,10.02
2023-05-01T06:42:43.902Z,8.50
2023-05-01T06:45:11.209Z,10.35
2023-05-01T06:47:38.645Z,9.50
2023-05-01T06:50:07.464Z,10.13
2023-05-01T06:52:34.734Z,9.38
2023-05-01T06:55:02.062Z,11.35
2023-05-01T06:57:30.425Z,13.75
2023-05-01T06:59:58.181Z,11.43
2023-05-01T07:02:25.992Z,10.65
2023-05-01T07:04:53.927Z,10.13
2023-05-01T07:07:21.204Z,12.93
2023-05-01T07:09:48.523Z,11.68
2023-05-01T07:12:16.086Z,11.25
2023-05-01T07:14:43.477Z,12.77
2023-05-01T07:17:10.707Z,11.70
2023-05-01T07:19:37.999Z,9.25
2023-05-01T07:22:05.290Z,10.90
2023-05-01T07:24:32.648Z,10.50
2023-05-01T07:27:00.033Z,9.73
2023-05-01T07:29:27.402Z,12.07
2023-05-01T07:31:54.956Z,8.75
2023-05-01T07:34:23.082Z,11.30
2023-05-01T07:36:50.636Z,10.87
2023-05-01T07:39:17.968Z,10.02
2023-05-01T07:41:45.586Z,14.82
2023-05-01T07:44:12.854Z,10.70
2023-05-01T07:46:40.099Z,11.07
2023-05-01T07:49:07.445Z,9.60
2023-05-01T07:51:34.654Z,8.70
2023-05-01T07:54:04.305Z,13.15
2023-05-01T07:56:32.131Z,11.48
2023-05-01T07:58:59.591Z,15.20
2023-05-01T08:01:26.982Z,14.98
2023-05-01T08:03:54.279Z,11.88
2023-05-01T08:06:21.675Z,15.02
2023-05-01T08:08:49.253Z,13.45
2023-05-01T08:11:16.596Z,12.23
2023-05-01T08:13:43.845Z,13.95
2023-05-01T08:16:11.253Z,12.80
2023-05-01T08:18:38.549Z,14.90
2023-05-01T08:21:05.830Z,11.07
2023-05-01T08:23:33.266Z,11.95
2023-05-01T08:26:00.657Z,12.57
2023-05-01T08:28:27.929Z,13.43
2023-05-01T08:30:55.350Z,11.63
2023-05-01T08:33:22.640Z,10.50
2023-05-01T08:35:49.922Z,11.30
2023-05-01T08:38:17.530Z,12.25
2023-05-01T08:40:48.368Z,15.30
2023-05-01T08:43:15.866Z,9.52
2023-05-01T08:45:43.356Z,12.20
2023-05-01T08:48:11.842Z,11.82
2023-05-01T08:50:40.141Z,11.73
2023-05-01T08:53:07.564Z,9.50
2023-05-01T08:55:35.811Z,14.57
2023-05-01T08:58:04.193Z,13.60
2023-05-01T09:00:32.112Z,12.32
2023-05-01T09:03:00.717Z,10.88
2023-05-01T09:05:28.177Z,11.73
2023-05-01T09:07:56.807Z,12.80
2023-05-01T09:10:25.171Z,12.63
2023-05-01T09:13:01.297Z,13.05
2023-05-01T09:15:29.152Z,10.80
2023-05-01T09:18:00.131Z,11.20
2023-05-01T09:20:29.464Z,9.68
2023-05-01T09:22:57.253Z,10.80
2023-05-01T09:25:24.600Z,12.65
2023-05-01T09:27:52.048Z,11.60
2023-05-01T09:30:32.477Z,10.40
2023-05-01T09:33:06.197Z,9.68
2023-05-01T09:35:34.126Z,8.10
2023-05-01T09:38:01.461Z,9.38
2023-05-01T09:40:28.750Z,10.30
2023-05-01T09:42:58.865Z,12.35
2023-05-01T09:45:27.889Z,8.05
2023-05-01T09:48:10.866Z,11.85
2023-05-01T09:50:39.397Z,10.07
2023-05-01T09:53:07.113Z,10.13
2023-05-01T09:55:35.036Z,10.65
2023-05-01T09:58:02.722Z,11.20
2023-05-01T10:00:30.268Z,9.43
2023-05-01T10:02:57.759Z,10.40
2023-05-01T10:05:25.162Z,9.88
2023-05-01T10:08:02.490Z,14.38
2023-05-01T10:10:29.900Z,11.48
2023-05-01T10:12:57.254Z,13.48
2023-05-01T10:15:36.692Z,14.07
2023-05-01T10:18:05.179Z,9.32
2023-05-01T10:20:32.733Z,10.00
2023-05-01T10:23:00.228Z,12.68
2023-05-01T10:25:28.150Z,10.85
2023-05-01T10:27:57.246Z,11.88
2023-05-01T10:32:52.848Z,10.27
2023-05-01T10:35:22.337Z,11.38
2023-05-01T10:38:00.895Z,12.00
2023-05-01T10:40:40.301Z,12.32
2023-05-01T10:43:18.572Z,10.55
2023-05-01T10:45:46.607Z,11.47
2023-05-01T10:48:14.085Z,19.50
2023-05-01T10:50:59.925Z,12.32
2023-05-01T10:53:27.365Z,12.02
2023-05-01T10:55:55.355Z,9.75
2023-05-01T10:58:40.887Z,12.73
2023-05-01T11:01:26.989Z,14.48
2023-05-01T11:03:54.636Z,14.02
2023-05-01T11:06:22.366Z,10.00
2023-05-01T11:08:49.832Z,10.88
2023-05-01T11:11:23.111Z,11.32
2023-05-01T11:13:56.203Z,14.20
2023-05-01T11:16:46.191Z,11.95
2023-05-01T11:19:22.840Z,16.40
2023-05-01T11:21:54.202Z,13.30
2023-05-01T11:24:21.549Z,12.93
2023-05-01T11:26:49.363Z,11.32
2023-05-01T11:29:16.672Z,14.07
2023-05-01T11:31:49.033Z,15.32
2023-05-01T11:34:17.039Z,12.43
2023-05-01T11:36:49.264Z,14.32
2023-05-01T11:39:19.691Z,14.73
2023-05-01T11:41:47.793Z,12.07
2023-05-01T11:44:19.322Z,13.23
2023-05-01T11:46:46.707Z,15.32
2023-05-01T11:49:14.701Z,14.07
2023-05-01T11:51:41.981Z,12.43
2023-05-01T11:54:10.228Z,14.82
2023-05-01T11:56:38.306Z,15.10
2023-05-01T11:59:12.835Z,10.23
2023-05-01T12:01:41.106Z,15.60
2023-05-01T12:04:08.825Z,12.73
2023-05-01T12:06:40.518Z,11.20
2023-05-01T12:09:08.806Z,19.92
2023-05-01T12:11:36.190Z,14.00
2023-05-01T12:14:04.102Z,12.00
2023-05-01T12:16:32.322Z,11.40
2023-05-01T12:18:59.839Z,12.43
2023-05-01T12:21:28.116Z,12.40
2023-05-01T12:23:55.475Z,12.57
2023-05-01T12:26:26.602Z,11.18
2023-05-01T12:29:01.034Z,10.02
2023-05-01T12:31:28.912Z,11.32
2023-05-01T12:33:59.961Z,13.73
2023-05-01T12:36:28.414Z,12.20
2023-05-01T12:39:00.731Z,12.82
2023-05-01T12:41:35.344Z,14.32
2023-05-01T12:44:02.612Z,13.75
2023-05-01T12:46:30.089Z,15.27
2023-05-01T12:48:57.509Z,14.60
2023-05-01T12:51:24.923Z,13.43
2023-05-01T12:53:57.192Z,15.65
2023-05-01T12:56:25.605Z,13.73
2023-05-01T12:58:55.134Z,15.52
2023-05-01T13:01:26.509Z,15.20
2023-05-01T13:03:54.960Z,12.95
2023-05-01T13:06:23.122Z,12.23
2023-05-01T13:08:50.771Z,16.60
2023-05-01T13:11:18.303Z,9.88
2023-05-01T13:13:46.487Z,9.63
2023-05-01T13:16:15.167Z,11.47
2023-05-01T13:18:48.761Z,9.13
2023-05-01T13:21:18.402Z,10.90
2023-05-01T13:23:55.927Z,9.73
2023-05-01T13:26:31.151Z,13.40
2023-05-01T13:29:00.027Z,11.93
2023-05-01T13:33:55.432Z,9.70
2023-05-01T13:36:26.600Z,10.35
2023-05-01T13:38:56.257Z,7.10
2023-05-01T13:41:25.770Z,6.50
2023-05-01T13:43:54.095Z,9.45
2023-05-01T13:46:22.844Z,9.52
2023-05-01T13:51:25.322Z,8.15
2023-05-01T13:53:56.238Z,7.05
2023-05-01T13:56:23.574Z,9.88
2023-05-01T13:58:51.026Z,10.98
2023-05-01T14:01:20.741Z,8.63
2023-05-01T14:03:48.907Z,7.72
2023-05-01T14:06:17.541Z,8.32
2023-05-01T14:08:45.295Z,7.95
2023-05-01T14:11:13.007Z,8.13
2023-05-01T14:13:47.624Z,8.13
2023-05-01T14:16:22.031Z,9.77
2023-05-01T14:18:49.571Z,10.07
2023-05-01T14:21:18.494Z,7.07
2023-05-01T14:26:18.060Z,9.30
2023-05-01T14:28:46.324Z,9.23
2023-05-01T14:31:27.450Z,7.70
2023-05-01T14:33:58.911Z,9.02
2023-05-01T14:36:26.825Z,7.13
2023-05-01T14:38:56.804Z,8.75
2023-05-01T14:41:24.228Z,7.43
2023-05-01T14:43:53.623Z,8.43
2023-05-01T14:46:34.063Z,6.60
2023-05-01T14:49:01.907Z,8.50
2023-05-01T14:51:31.316Z,8.77
2023-05-01T14:53:58.768Z,9.45
2023-05-01T14:56:26.021Z,8.70
2023-05-01T14:58:57.948Z,8.43
2023-05-01T15:01:25.804Z,9.00
2023-05-01T15:03:54.210Z,8.63
2023-05-01T15:06:21.894Z,7.35
2023-05-01T15:08:49.223Z,7.20
2023-05-01T15:11:18.722Z,9.25
2023-05-01T15:13:46.224Z,8.25
2023-05-01T15:16:13.500Z,18.30
2023-05-01T15:18:40.839Z,10.30
2023-05-01T15:21:08.261Z,10.48
2023-05-01T15:23:37.056Z,11.80
2023-05-01T15:26:04.545Z,11.23
2023-05-01T15:28:32.594Z,13.65
2023-05-01T15:31:00.224Z,12.02
2023-05-01T15:33:27.462Z,11.95
2023-05-01T15:35:54.796Z,11.55
2023-05-01T15:38:22.293Z,11.60
2023-05-01T15:40:50.188Z,13.63
2023-05-01T15:43:17.540Z,12.63
2023-05-01T15:45:44.987Z,11.45
2023-05-01T15:48:12.467Z,11.43
2023-05-01T15:50:39.958Z,13.40
2023-05-01T15:53:07.217Z,13.75
2023-05-01T15:55:34.805Z,14.80
2023-05-01T15:58:02.869Z,13.30
2023-05-01T16:00:30.332Z,14.15
2023-05-01T16:02:57.613Z,14.23
2023-05-01T16:05:25.142Z,11.55
2023-05-01T16:07:55.111Z,12.82
2023-05-01T16:10:22.710Z,13.20
2023-05-01T16:12:51.109Z,13.32
2023-05-01T16:15:18.752Z,11.70
2023-05-01T16:17:46.660Z,13.27
2023-05-01T16:20:14.882Z,15.73
2023-05-01T16:22:43.214Z,17.00
2023-05-01T16:25:11.104Z,16.83
2023-05-01T16:27:44.303Z,14.07
2023-05-01T16:30:14.224Z,15.35
2023-05-01T16:32:41.769Z,16.70
2023-05-01T16:35:12.543Z,16.02
2023-05-01T16:37:39.864Z,18.90
2023-05-01T16:40:07.665Z,20.33
2023-05-01T16:42:34.954Z,18.17
2023-05-01T16:45:02.424Z,20.25
2023-05-01T16:47:29.867Z,18.08
2023-05-01T16:50:00.359Z,18.63
2023-05-01T16:52:28.201Z,17.83
2023-05-01T16:54:56.387Z,23.00
2023-05-01T16:57:23.770Z,22.93
2023-05-01T16:59:51.451Z,24.73
2023-05-01T17:02:18.802Z,23.02
2023-05-01T17:04:46.418Z,22.80
2023-05-01T17:07:13.808Z,29.52
2023-05-01T17:09:41.101Z,33.58
2023-05-01T17:12:08.488Z,30.40
2023-05-01T17:14:35.790Z,27.02
2023-05-01T17:17:04.547Z,26.27
2023-05-01T17:19:34.563Z,27.80
2023-05-01T17:22:02.042Z,25.55
2023-05-01T17:24:29.592Z,29.90
2023-05-01T17:26:57.289Z,34.20
2023-05-01T17:29:24.813Z,31.60
2023-05-01T17:31:52.114Z,32.30
2023-05-01T17:34:19.622Z,27.98
2023-05-01T17:36:47.586Z,32.97
2023-05-01T17:39:14.848Z,30.85
2023-05-01T17:41:42.357Z,33.25
2023-05-01T17:44:09.733Z,31.58
2023-05-01T17:46:38.840Z,35.80
2023-05-01T17:51:34.565Z,37.08
2023-05-01T17:54:02.050Z,37.95
2023-05-01T17:56:29.354Z,34.20
2023-05-01T17:58:56.652Z,36.17
2023-05-01T18:01:24.145Z,40.38
2023-05-01T18:03:51.624Z,42.75
2023-05-01T18:06:19.079Z,43.03
2023-05-01T18:08:46.943Z,50.83
2023-05-01T18:11:14.201Z,56.85
2023-05-01T18:13:43.752Z,51.08
2023-05-01T18:16:11.827Z,51.75
2023-05-01T18:18:39.180Z,50.03
2023-05-01T18:21:06.561Z,49.95
2023-05-01T18:23:33.801Z,47.10
2023-05-01T18:26:01.101Z,42.58
2023-05-01T18:28:28.400Z,44.25
2023-05-01T18:30:55.694Z,49.25
2023-05-01T18:33:23.139Z,49.38
2023-05-01T18:35:50.400Z,43.92
2023-05-01T18:38:17.727Z,45.80
2023-05-01T18:40:44.965Z,45.00
2023-05-01T18:43:14.106Z,46.33
2023-05-01T18:45:41.458Z,39.15
2023-05-01T18:48:08.759Z,44.45
2023-05-01T18:50:36.186Z,36.17
2023-05-01T18:53:03.482Z,38.90
2023-05-01T18:55:31.062Z,37.92
2023-05-01T18:57:58.419Z,36.92
2023-05-01T19:00:26.621Z,40.08
2023-05-01T19:02:53.930Z,44.07
2023-05-01T19:05:22.545Z,42.47
2023-05-01T19:07:50.112Z,40.75
2023-05-01T19:10:17.747Z,41.95
2023-05-01T19:12:45.694Z,38.45
2023-05-01T19:15:13.974Z,38.75
2023-05-01T19:17:41.445Z,48.07
2023-05-01T19:20:09.219Z,45.30
2023-05-01T19:22:36.546Z,50.17
2023-05-01T19:25:03.880Z,49.70
2023-05-01T19:27:31.261Z,48.10
2023-05-01T19:30:00.944Z,46.40
2023-05-01T19:32:29.234Z,51.90
2023-05-01T19:34:56.886Z,45.85
2023-05-01T19:37:24.318Z,45.70
2023-05-01T19:39:51.586Z,49.63
2023-05-01T19:42:18.898Z,48.25
2023-05-01T19:44:46.328Z,48.53
2023-05-01T19:47:13.584Z,50.97
2023-05-01T19:49:41.085Z,49.88
2023-05-01T19:52:09.041Z,50.83
2023-05-01T19:54:36.500Z,53.55
2023-05-01T19:57:04.500Z,51.70
2023-05-01T19:59:31.893Z,48.40
2023-05-01T20:02:01.134Z,52.95
2023-05-01T20:04:28.939Z,48.65
2023-05-01T20:06:56.410Z,47.90
2023-05-01T20:09:23.745Z,46.47
2023-05-01T20:11:51.331Z,43.28
2023-05-01T20:14:18.649Z,41.55
2023-05-01T20:16:46.142Z,44.55
2023-05-01T20:19:13.646Z,36.90
2023-05-01T20:21:41.178Z,31.35
2023-05-01T20:24:08.451Z,33.67
2023-05-01T20:26:36.057Z,32.63
2023-05-01T20:29:03.470Z,40.13
2023-05-01T20:31:30.815Z,40.05
2023-05-01T20:33:58.098Z,38.75
2023-05-01T20:36:25.612Z,42.72
2023-05-01T20:38:53.256Z,38.35
2023-05-01T20:41:20.844Z,37.65
2023-05-01T20:43:48.118Z,35.42
2023-05-01T20:46:15.573Z,38.55
2023-05-01T20:48:44.017Z,33.38
2023-05-01T20:51:12.003Z,33.75
2023-05-01T20:53:39.280Z,33.78
2023-05-01T20:56:06.555Z,35.50
2023-05-01T20:58:33.872Z,35.65
2023-05-01T21:01:01.770Z,31.77
2023-05-01T21:03:29.275Z,41.75
2023-05-01T21:06:00.021Z,37.40
2023-05-01T21:08:31.290Z,36.35
2023-05-01T21:10:58.506Z,38.28
2023-05-01T21:13:27.410Z,40.63
2023-05-01T21:15:54.876Z,38.25
2023-05-01T21:18:22.295Z,36.88
2023-05-01T21:20:49.690Z,38.65
2023-05-01T21:23:17.783Z,40.38
2023-05-01T21:25:45.275Z,35.13
2023-05-01T21:28:15.765Z,39.47
2023-05-01T21:30:43.014Z,38.20
2023-05-01T21:33:13.626Z,37.20
2023-05-01T21:35:45.330Z,39.38
2023-05-01T21:38:13.181Z,39.97
2023-05-01T21:40:45.975Z,38.50
2023-05-01T21:43:13.532Z,34.38
2023-05-01T21:45:44.121Z,31.98
2023-05-01T21:48:14.492Z,29.02
2023-05-01T21:50:41.927Z,30.17
2023-05-01T21:53:10.348Z,28.35
2023-05-01T21:55:37.669Z,25.67
2023-05-01T21:58:05.036Z,28.52
2023-05-01T22:00:32.497Z,29.30
2023-05-01T22:03:00.734Z,32.67
2023-05-01T22:05:30.972Z,27.52
2023-05-01T22:07:58.274Z,35.05
2023-05-01T22:10:25.576Z,28.00
2023-05-01T22:12:53.375Z,31.80
2023-05-01T22:15:20.596Z,31.42
2023-05-01T22:17:47.891Z,32.03
2023-05-01T22:20:15.379Z,36.42
2023-05-01T22:22:43.165Z,30.42
2023-05-01T22:25:11.587Z,30.60
2023-05-01T22:27:38.924Z,32.43
2023-05-01T22:30:06.653Z,32.88
2023-05-01T22:32:34.083Z,29.63
2023-05-01T22:35:01.472Z,30.80
2023-05-01T22:37:28.690Z,30.40
2023-05-01T22:39:56.124Z,33.60
2023-05-01T22:42:23.566Z,30.48
2023-05-01T22:44:50.873Z,28.05
2023-05-01T22:47:18.100Z,32.20
2023-05-01T22:49:45.407Z,29.38
2023-05-01T22:52:12.744Z,31.50
2023-05-01T22:54:40.007Z,32.53
2023-05-01T22:57:07.246Z,28.13
2023-05-01T22:59:34.594Z,30.15
2023-05-01T23:02:05.551Z,26.73
2023-05-01T23:04:33.387Z,28.70
2023-05-01T23:07:00.676Z,30.42
2023-05-01T23:09:30.667Z,34.65
2023-05-01T23:11:57.949Z,30.85
2023-05-01T23:14:25.792Z,30.10
2023-05-01T23:16:53.040Z,31.67
2023-05-01T23:19:24.877Z,36.30
2023-05-01T23:21:52.730Z,38.58
2023-05-01T23:24:21.318Z,34.13
2023-05-01T23:26:48.836Z,34.55
2023-05-01T23:29:16.830Z,32.88
2023-05-01T23:31:46.471Z,36.15
2023-05-01T23:34:17.605Z,31.85
2023-05-01T23:36:46.299Z,27.75
2023-05-01T23:39:14.066Z,20.80
2023-05-01T23:41:41.685Z,18.05
2023-05-01T23:44:09.746Z,18.23
2023-05-01T23:46:37.393Z,22.25
2023-05-01T23:49:04.795Z,19.10
2023-05-01T23:51:32.881Z,21.75
2023-05-01T23:54:00.738Z,19.90
2023-05-01T23:56:28.070Z,17.88
2023-05-01T23:58:55.338Z,20.17
